createdAt,value
2024-01-08T00:00:11.216Z,96934.34
2024-01-08T00:01:15.684Z,96937.31
2024-01-08T00:02:17.669Z,96934.75
2024-01-08T00:03:19.509Z,96939.09
2024-01-08T00:04:21.341Z,96934.41
2024-01-08T00:05:23.810Z,96936.69
2024-01-08T00:06:25.764Z,96936.97
2024-01-08T00:07:27.604Z,96938.53
2024-01-08T00:08:29.435Z,96939.09
2024-01-08T00:09:32.246Z,96935.56
2024-01-08T00:10:34.708Z,96936.13
2024-01-08T00:11:36.687Z,96934.19
2024-01-08T00:12:38.458Z,96942.41
2024-01-08T00:13:40.219Z,96943.06
2024-01-08T00:14:42.052Z,96943.91
2024-01-08T00:15:43.841Z,96935.56
2024-01-08T00:16:45.612Z,96940.66
2024-01-08T00:17:47.524Z,96938.63
2024-01-08T00:18:49.353Z,96941.19
2024-01-08T00:19:51.286Z,96949.53
2024-01-08T00:20:53.029Z,96945.09
2024-01-08T00:21:54.881Z,96944.72
2024-01-08T00:22:56.853Z,96938.78
2024-01-08T00:23:58.966Z,96944.72
2024-01-08T00:25:01.526Z,96948.75
2024-01-08T00:26:03.442Z,96940.41
2024-01-08T00:27:05.378Z,96945.53
2024-01-08T00:28:07.227Z,96950.41
2024-01-08T00:29:09.092Z,96949.09
2024-01-08T00:30:11.218Z,96942.38
2024-01-08T00:31:12.936Z,96948.03
2024-01-08T00:32:14.779Z,96950.34
2024-01-08T00:33:16.728Z,96951.94
2024-01-08T00:34:18.680Z,96949.28
2024-01-08T00:35:20.485Z,96955.06
2024-01-08T00:36:23.721Z,96957.91
2024-01-08T00:37:25.555Z,96955.59
2024-01-08T00:38:27.409Z,96953.16
2024-01-08T00:39:29.375Z,96956.53
2024-01-08T00:40:31.166Z,96961.66
2024-01-08T00:41:33.572Z,96957.34
2024-01-08T00:42:35.747Z,96958.09
2024-01-08T00:43:37.510Z,96956.47
2024-01-08T00:44:39.403Z,96964.97
2024-01-08T00:45:41.745Z,96966.59
2024-01-08T00:46:43.531Z,96963.91
2024-01-08T00:47:45.332Z,96969.34
2024-01-08T00:48:47.194Z,96965.94
2024-01-08T00:49:49.151Z,96966.78
2024-01-08T00:50:52.825Z,96972.19
2024-01-08T00:51:54.557Z,96964.06
2024-01-08T00:52:56.435Z,96962.16
2024-01-08T00:53:58.157Z,96960.16
2024-01-08T00:55:06.600Z,96966.66
2024-01-08T00:56:08.741Z,96965.47
2024-01-08T00:57:10.569Z,96960.22
2024-01-08T00:58:12.522Z,96971.50
2024-01-08T00:59:14.410Z,96966.97
2024-01-08T01:00:16.826Z,96974.28
2024-01-08T01:01:18.623Z,96971.03
2024-01-08T01:02:20.539Z,96977.66
2024-01-08T01:03:22.399Z,96973.78
2024-01-08T01:04:24.773Z,96972.81
2024-01-08T01:05:26.871Z,96969.34
2024-01-08T01:06:28.910Z,96974.00
2024-01-08T01:07:33.031Z,96975.31
2024-01-08T01:08:35.389Z,96977.19
2024-01-08T01:09:37.151Z,96972.34
2024-01-08T01:10:38.912Z,96982.69
2024-01-08T01:11:40.695Z,96971.97
2024-01-08T01:12:42.497Z,96981.81
2024-01-08T01:13:44.322Z,96976.72
2024-01-08T01:14:46.423Z,96978.47
2024-01-08T01:15:48.126Z,96986.50
2024-01-08T01:16:50.258Z,96980.56
2024-01-08T01:17:52.230Z,96980.47
2024-01-08T01:18:54.259Z,96986.13
2024-01-08T01:19:56.152Z,96982.25
2024-01-08T01:20:57.850Z,96983.19
2024-01-08T01:22:00.072Z,96983.44
2024-01-08T01:23:02.482Z,96989.50
2024-01-08T01:24:06.120Z,96990.69
2024-01-08T01:25:08.189Z,96986.50
2024-01-08T01:26:09.945Z,96988.94
2024-01-08T01:27:11.812Z,96987.56
2024-01-08T01:28:13.604Z,96985.13
2024-01-08T01:29:15.448Z,96988.38
2024-01-08T01:30:17.361Z,96986.31
2024-01-08T01:31:19.207Z,96987.69
2024-01-08T01:32:21.593Z,96987.94
2024-01-08T01:33:23.442Z,96979.78
2024-01-08T01:34:25.460Z,96977.91
2024-01-08T01:35:27.384Z,96991.69
2024-01-08T01:36:29.245Z,96990.50
2024-01-08T01:37:31.409Z,96984.81
2024-01-08T01:38:33.406Z,96984.25
2024-01-08T01:39:35.253Z,96989.63
2024-01-08T01:40:37.080Z,96988.47
2024-01-08T01:41:38.996Z,96987.28
2024-01-08T01:42:41.075Z,96988.47
2024-01-08T01:43:42.830Z,96987.28
2024-01-08T01:44:44.549Z,96990.66
2024-01-08T01:45:46.267Z,96989.84
2024-01-08T01:46:49.816Z,96990.66
2024-01-08T01:48:01.722Z,96997.28
2024-01-08T01:49:04.902Z,96992.97
2024-01-08T01:50:09.422Z,96999.59
2024-01-08T01:51:11.466Z,97000.66
2024-01-08T01:52:13.216Z,96996.59
2024-01-08T01:53:15.001Z,96998.56
2024-01-08T01:54:18.310Z,96996.00
2024-01-08T01:55:20.054Z,96998.78
2024-01-08T01:56:22.313Z,96991.22
2024-01-08T01:57:24.195Z,96991.34
2024-01-08T01:58:26.060Z,96995.06
2024-01-08T01:59:31.665Z,96990.44
2024-01-08T02:00:34.197Z,96994.06
2024-01-08T02:01:36.998Z,96988.28
2024-01-08T02:02:39.206Z,96996.88
2024-01-08T02:03:42.076Z,96996.88
2024-01-08T02:04:44.852Z,96996.63
2024-01-08T02:05:47.412Z,96996.25
2024-01-08T02:06:49.784Z,96998.47
2024-01-08T02:07:51.868Z,96999.69
2024-01-08T02:08:54.582Z,96999.34
2024-01-08T02:09:56.838Z,96994.47
2024-01-08T02:10:59.468Z,96995.22
2024-01-08T02:12:01.317Z,97002.31
2024-01-08T02:13:04.669Z,96996.13
2024-01-08T02:14:06.547Z,97000.56
2024-01-08T02:15:08.658Z,96998.97
2024-01-08T02:16:10.579Z,97003.00
2024-01-08T02:17:12.509Z,97000.84
2024-01-08T02:18:14.392Z,97000.13
2024-01-08T02:19:16.220Z,96999.69
2024-01-08T02:20:18.106Z,97002.34
2024-01-08T02:21:19.869Z,96999.78
2024-01-08T02:22:21.751Z,97005.84
2024-01-08T02:23:23.516Z,97005.06
2024-01-08T02:24:29.115Z,97006.47
2024-01-08T02:25:32.600Z,97006.47
2024-01-08T02:26:35.793Z,97007.03
2024-01-08T02:27:38.335Z,97012.56
2024-01-08T02:28:39.992Z,97006.22
2024-01-08T02:29:41.800Z,97002.84
2024-01-08T02:30:43.595Z,97003.66
2024-01-08T02:31:45.468Z,97006.56
2024-01-08T02:32:47.587Z,97010.75
2024-01-08T02:33:49.779Z,97008.22
2024-01-08T02:34:52.085Z,97011.69
2024-01-08T02:35:54.997Z,97009.00
2024-01-08T02:36:57.089Z,97003.91
2024-01-08T02:37:58.903Z,97006.91
2024-01-08T02:39:00.741Z,97000.63
2024-01-08T02:40:03.061Z,97005.84
2024-01-08T02:41:05.059Z,97018.38
2024-01-08T02:42:06.929Z,97013.16
2024-01-08T02:43:08.751Z,97011.16
2024-01-08T02:44:10.558Z,97009.19
2024-01-08T02:45:12.300Z,97006.63
2024-01-08T02:46:14.002Z,97011.75
2024-01-08T02:47:15.731Z,97012.94
2024-01-08T02:48:17.834Z,97010.59
2024-01-08T02:49:19.837Z,97015.13
2024-01-08T02:50:21.723Z,97021.09
2024-01-08T02:51:23.460Z,97017.16
2024-01-08T02:52:25.280Z,97020.88
2024-01-08T02:53:27.153Z,97019.25
2024-01-08T02:54:28.998Z,97026.22
2024-01-08T02:55:30.791Z,97017.28
2024-01-08T02:56:33.033Z,97018.91
2024-01-08T02:57:34.858Z,97019.72
2024-01-08T02:58:36.941Z,97023.44
2024-01-08T02:59:38.758Z,97019.41
2024-01-08T03:00:40.695Z,97027.50
2024-01-08T03:01:42.431Z,97022.06
2024-01-08T03:02:44.229Z,97023.44
2024-01-08T03:03:46.198Z,97028.56
2024-01-08T03:04:48.485Z,97027.50
2024-01-08T03:05:50.381Z,97031.81
2024-01-08T03:06:52.284Z,97032.25
2024-01-08T03:07:54.120Z,97033.88
2024-01-08T03:08:57.220Z,97033.41
2024-01-08T03:09:59.812Z,97031.44
2024-01-08T03:11:01.566Z,97039.69
2024-01-08T03:12:03.536Z,97039.38
2024-01-08T03:13:05.346Z,97042.72
2024-01-08T03:14:07.116Z,97042.84
2024-01-08T03:15:09.047Z,97039.84
2024-01-08T03:16:11.372Z,97046.69
2024-01-08T03:17:13.185Z,97047.16
2024-01-08T03:18:15.056Z,97048.63
2024-01-08T03:19:16.905Z,97045.97
2024-01-08T03:20:18.929Z,97047.59
2024-01-08T03:21:20.736Z,97047.34
2024-01-08T03:22:22.861Z,97047.25
2024-01-08T03:23:25.182Z,97047.25
2024-01-08T03:24:27.022Z,97051.56
2024-01-08T03:25:28.807Z,97050.59
2024-01-08T03:26:31.091Z,97056.78
2024-01-08T03:27:33.460Z,97055.13
2024-01-08T03:28:35.327Z,97048.53
2024-01-08T03:29:37.543Z,97058.75
2024-01-08T03:30:39.330Z,97054.34
2024-01-08T03:31:44.835Z,97054.81
2024-01-08T03:32:46.709Z,97057.25
2024-01-08T03:33:49.741Z,97059.44
2024-01-08T03:34:51.760Z,97059.09
2024-01-08T03:35:54.915Z,97058.50
2024-01-08T03:36:56.783Z,97063.50
2024-01-08T03:37:58.673Z,97066.16
2024-01-08T03:39:01.197Z,97067.13
2024-01-08T03:40:04.796Z,97074.09
2024-01-08T03:41:06.619Z,97077.56
2024-01-08T03:42:08.532Z,97069.22
2024-01-08T03:43:10.243Z,97075.38
2024-01-08T03:44:12.310Z,97075.03
2024-01-08T03:45:14.121Z,97072.50
2024-01-08T03:46:15.861Z,97072.59
2024-01-08T03:47:17.751Z,97077.97
2024-01-08T03:48:19.746Z,97071.22
2024-01-08T03:49:21.763Z,97070.75
2024-01-08T03:50:23.728Z,97070.53
2024-01-08T03:51:25.469Z,97072.38
2024-01-08T03:52:27.253Z,97069.69
2024-01-08T03:53:29.190Z,97076.53
2024-01-08T03:54:31.344Z,97072.00
2024-01-08T03:55:35.369Z,97074.22
2024-01-08T03:56:37.334Z,97067.34
2024-01-08T03:57:39.128Z,97064.56
2024-01-08T03:58:40.839Z,97073.28
2024-01-08T03:59:44.051Z,97062.13
2024-01-08T04:00:45.781Z,97067.72
2024-01-08T04:01:48.184Z,97070.72
2024-01-08T04:02:50.208Z,97074.91
2024-01-08T04:03:53.057Z,97069.09
2024-01-08T04:04:55.003Z,97062.22
2024-01-08T04:05:56.918Z,97070.38
2024-01-08T04:06:58.920Z,97072.00
2024-01-08T04:08:01.457Z,97065.03
2024-01-08T04:09:03.260Z,97068.13
2024-01-08T04:10:06.118Z,97065.59
2024-01-08T04:11:08.033Z,97071.53
2024-01-08T04:12:10.036Z,97070.59
2024-01-08T04:13:12.417Z,97069.66
2024-01-08T04:14:14.179Z,97066.28
2024-01-08T04:15:16.133Z,97069.88
2024-01-08T04:16:17.974Z,97070.94
2024-01-08T04:17:19.833Z,97068.03
2024-01-08T04:18:21.683Z,97060.25
2024-01-08T04:19:24.604Z,97065.34
2024-01-08T04:20:26.607Z,97064.88
2024-01-08T04:21:28.759Z,97066.41
2024-01-08T04:22:30.458Z,97063.72
2024-01-08T04:23:32.363Z,97063.59
2024-01-08T04:24:34.126Z,97066.16
2024-01-08T04:25:35.865Z,97063.59
2024-01-08T04:26:37.894Z,97066.16
2024-01-08T04:27:39.797Z,97069.66
2024-01-08T04:28:41.667Z,97068.72
2024-01-08T04:29:43.422Z,97071.06
2024-01-08T04:30:45.212Z,97067.81
2024-01-08T04:31:46.926Z,97066.16
2024-01-08T04:32:48.928Z,97071.44
2024-01-08T04:33:51.079Z,97070.72
2024-01-08T04:34:53.202Z,97068.28
2024-01-08T04:35:55.180Z,97076.19
2024-01-08T04:36:57.282Z,97075.16
2024-01-08T04:38:02.153Z,97074.56
2024-01-08T04:39:04.089Z,97079.91
2024-01-08T04:40:06.162Z,97077.13
2024-01-08T04:41:08.370Z,97076.88
2024-01-08T04:42:10.085Z,97084.31
2024-01-08T04:43:12.198Z,97079.91
2024-01-08T04:44:14.110Z,97077.13
2024-01-08T04:45:15.990Z,97086.50
2024-01-08T04:46:17.860Z,97088.25
2024-01-08T04:47:19.634Z,97091.03
2024-01-08T04:48:22.732Z,97084.31
2024-01-08T04:49:26.355Z,97084.31
2024-01-08T04:50:28.240Z,97077.81
2024-01-08T04:51:30.101Z,97081.63
2024-01-08T04:52:31.959Z,97085.34
2024-01-08T04:53:37.232Z,97092.31
2024-01-08T04:54:39.026Z,97091.38
2024-01-08T04:55:40.944Z,97091.25
2024-01-08T04:56:42.810Z,97092.31
2024-01-08T04:57:44.523Z,97091.50
2024-01-08T04:58:46.264Z,97089.06
2024-01-08T04:59:47.996Z,97091.63
2024-01-08T05:00:49.854Z,97095.47
2024-01-08T05:01:52.266Z,97094.53
2024-01-08T05:02:54.267Z,97095.13
2024-01-08T05:03:56.227Z,97094.88
2024-01-08T05:04:58.237Z,97100.81
2024-01-08T05:06:00.116Z,97092.69
2024-01-08T05:07:02.060Z,97090.81
2024-01-08T05:08:05.286Z,97091.63
2024-01-08T05:09:07.315Z,97094.53
2024-01-08T05:10:09.145Z,97096.16
2024-01-08T05:11:11.515Z,97090.50
2024-01-08T05:12:13.325Z,97087.78
2024-01-08T05:13:15.142Z,97088.84
2024-01-08T05:14:16.884Z,97089.66
2024-01-08T05:15:18.692Z,97088.97
2024-01-08T05:16:20.602Z,97092.47
2024-01-08T05:17:24.987Z,97088.97
2024-01-08T05:18:27.933Z,97086.41
2024-01-08T05:19:29.938Z,97088.50
2024-01-08T05:20:32.349Z,97091.50
2024-01-08T05:21:34.197Z,97093.84
2024-01-08T05:22:36.627Z,97096.16
2024-01-08T05:23:38.420Z,97093.38
2024-01-08T05:24:40.263Z,97090.56
2024-01-08T05:25:42.034Z,97086.72
2024-01-08T05:26:43.882Z,97089.53
2024-01-08T05:27:45.811Z,97098.38
2024-01-08T05:28:47.831Z,97092.91
2024-01-08T05:29:49.717Z,97095.94
2024-01-08T05:30:51.781Z,97102.69
2024-01-08T05:31:54.270Z,97103.97
2024-01-08T05:32:56.266Z,97107.22
2024-01-08T05:33:58.144Z,97100.13
2024-01-08T05:35:00.733Z,97114.31
2024-01-08T05:36:02.690Z,97117.41
2024-01-08T05:37:04.547Z,97107.31
2024-01-08T05:38:06.799Z,97108.50
2024-01-08T05:39:08.555Z,97108.84
2024-01-08T05:40:10.523Z,97112.19
2024-01-08T05:41:12.317Z,97118.25
2024-01-08T05:42:14.132Z,97114.88
2024-01-08T05:43:16.039Z,97113.59
2024-01-08T05:44:18.620Z,97118.84
2024-01-08T05:45:20.359Z,97122.88
2024-01-08T05:46:22.189Z,97120.22
2024-01-08T05:47:24.179Z,97119.06
2024-01-08T05:48:26.137Z,97122.09
2024-01-08T05:49:28.756Z,97120.22
2024-01-08T05:50:30.683Z,97124.28
2024-01-08T05:51:32.567Z,97118.25
2024-01-08T05:52:34.432Z,97126.63
2024-01-08T05:53:36.851Z,97125.81
2024-01-08T05:54:38.707Z,97122.88
2024-01-08T05:55:40.572Z,97130.34
2024-01-08T05:56:42.370Z,97128.59
2024-01-08T05:57:44.329Z,97131.03
2024-01-08T05:58:46.215Z,97127.31
2024-01-08T05:59:48.217Z,97132.16
2024-01-08T06:00:50.317Z,97129.88
2024-01-08T06:01:52.091Z,97132.16
2024-01-08T06:02:53.848Z,97131.94
2024-01-08T06:03:55.648Z,97130.88
2024-01-08T06:04:57.988Z,97137.50
2024-01-08T06:05:59.927Z,97139.25
2024-01-08T06:07:01.681Z,97141.22
2024-01-08T06:08:03.596Z,97137.63
2024-01-08T06:09:05.440Z,97138.44
2024-01-08T06:10:07.683Z,97145.53
2024-01-08T06:11:09.478Z,97140.22
2024-01-08T06:12:11.243Z,97150.53
2024-01-08T06:13:12.940Z,97143.13
2024-01-08T06:14:14.922Z,97141.59
2024-01-08T06:15:16.948Z,97145.53
2024-01-08T06:16:18.684Z,97149.47
2024-01-08T06:17:20.543Z,97150.06
2024-01-08T06:18:22.395Z,97147.50
2024-01-08T06:19:24.212Z,97147.41
2024-01-08T06:20:25.956Z,97152.84
2024-01-08T06:21:27.807Z,97154.94
2024-01-08T06:22:29.650Z,97154.94
2024-01-08T06:23:31.698Z,97156.78
2024-01-08T06:24:33.890Z,97155.88
2024-01-08T06:25:35.589Z,97156.00
2024-01-08T06:26:37.627Z,97157.03
2024-01-08T06:27:39.392Z,97164.84
2024-01-08T06:28:41.631Z,97158.91
2024-01-08T06:29:43.448Z,97158.06
2024-01-08T06:30:45.472Z,97163.19
2024-01-08T06:31:47.610Z,97159.38
2024-01-08T06:32:49.605Z,97156.69
2024-01-08T06:33:51.582Z,97154.72
2024-01-08T06:34:53.656Z,97161.59
2024-01-08T06:35:55.394Z,97161.31
2024-01-08T06:36:57.155Z,97163.34
2024-01-08T06:37:59.255Z,97159.97
2024-01-08T06:39:01.554Z,97166.94
2024-01-08T06:40:03.848Z,97169.28
2024-01-08T06:41:05.616Z,97169.84
2024-01-08T06:42:07.456Z,97173.22
2024-01-08T06:43:09.177Z,97172.97
2024-01-08T06:44:10.980Z,97174.72
2024-01-08T06:45:13.818Z,97173.81
2024-01-08T06:46:17.210Z,97179.03
2024-01-08T06:47:20.396Z,97174.03
2024-01-08T06:48:22.361Z,97172.16
2024-01-08T06:49:24.350Z,97173.22
2024-01-08T06:50:26.772Z,97173.22
2024-01-08T06:51:28.605Z,97177.28
2024-01-08T06:52:30.340Z,97178.91
2024-01-08T06:53:32.137Z,97177.75
2024-01-08T06:54:34.277Z,97176.69
2024-01-08T06:55:36.073Z,97169.63
2024-01-08T06:56:37.989Z,97176.94
2024-01-08T06:57:39.783Z,97182.63
2024-01-08T06:58:42.214Z,97180.50
2024-01-08T06:59:45.799Z,97175.88
2024-01-08T07:00:49.380Z,97174.09
2024-01-08T07:01:53.447Z,97183.53
2024-01-08T07:02:55.886Z,97181.91
2024-01-08T07:03:58.255Z,97176.34
2024-01-08T07:05:00.355Z,97183.19
2024-01-08T07:06:02.912Z,97185.03
2024-01-08T07:07:05.729Z,97182.38
2024-01-08T07:08:08.896Z,97185.63
2024-01-08T07:09:10.709Z,97184.00
2024-01-08T07:10:13.097Z,97190.28
2024-01-08T07:11:24.643Z,97189.25
2024-01-08T07:12:26.407Z,97185.19
2024-01-08T07:13:31.023Z,97191.94
2024-01-08T07:14:33.975Z,97184.97
2024-01-08T07:15:36.932Z,97185.66
2024-01-08T07:16:39.607Z,97186.34
2024-01-08T07:17:41.779Z,97187.03
2024-01-08T07:18:43.875Z,97189.59
2024-01-08T07:19:45.649Z,97184.22
2024-01-08T07:20:47.496Z,97194.47
2024-01-08T07:21:49.294Z,97186.34
2024-01-08T07:22:51.094Z,97191.47
2024-01-08T07:23:53.027Z,97196.09
2024-01-08T07:24:54.851Z,97195.41
2024-01-08T07:25:56.754Z,97191.47
2024-01-08T07:26:59.232Z,97198.78
2024-01-08T07:28:01.608Z,97200.28
2024-01-08T07:29:04.935Z,97203.53
2024-01-08T07:30:11.114Z,97204.81
2024-01-08T07:31:14.107Z,97206.44
2024-01-08T07:32:16.063Z,97208.06
2024-01-08T07:33:18.177Z,97210.88
2024-01-08T07:34:20.763Z,97209.22
2024-01-08T07:35:22.730Z,97216.00
2024-01-08T07:36:24.569Z,97216.69
2024-01-08T07:37:26.401Z,97214.34
2024-01-08T07:38:28.864Z,97211.31
2024-01-08T07:39:30.610Z,97222.38
2024-01-08T07:40:32.487Z,97217.38
2024-01-08T07:41:34.497Z,97215.72
2024-01-08T07:42:36.959Z,97222.59
2024-01-08T07:43:39.316Z,97219.34
2024-01-08T07:44:41.093Z,97218.28
2024-01-08T07:45:42.962Z,97222.59
2024-01-08T07:46:44.675Z,97222.84
2024-01-08T07:47:46.551Z,97222.84
2024-01-08T07:48:52.264Z,97216.78
2024-01-08T07:49:54.110Z,97225.84
2024-01-08T07:50:56.861Z,97220.41
2024-01-08T07:51:59.303Z,97221.22
2024-01-08T07:53:01.257Z,97224.00
2024-01-08T07:54:03.126Z,97235.38
2024-01-08T07:55:05.582Z,97227.59
2024-01-08T07:56:07.417Z,97236.34
2024-01-08T07:57:11.819Z,97228.41
2024-01-08T07:58:21.588Z,97230.53
2024-01-08T07:59:26.708Z,97233.09
2024-01-08T08:00:28.615Z,97240.50
2024-01-08T08:01:30.426Z,97237.03
2024-01-08T08:02:32.376Z,97235.97
2024-01-08T08:03:34.666Z,97238.53
2024-01-08T08:04:36.922Z,97232.94
2024-01-08T08:05:41.029Z,97242.47
2024-01-08T08:06:45.266Z,97241.44
2024-01-08T08:07:48.775Z,97245.41
2024-01-08T08:08:51.509Z,97238.66
2024-01-08T08:09:53.425Z,97242.84
2024-01-08T08:10:55.158Z,97239.22
2024-01-08T08:11:56.931Z,97238.44
2024-01-08T08:12:58.665Z,97237.25
2024-01-08T08:14:00.566Z,97239.91
2024-01-08T08:15:02.639Z,97235.16
2024-01-08T08:16:04.712Z,97242.25
2024-01-08T08:17:07.261Z,97242.59
2024-01-08T08:18:09.832Z,97244.94
2024-01-08T08:19:12.023Z,97246.34
2024-01-08T08:20:14.039Z,97242.03
2024-01-08T08:21:15.851Z,97244.00
2024-01-08T08:22:17.570Z,97247.50
2024-01-08T08:23:19.331Z,97248.41
2024-01-08T08:24:21.343Z,97242.38
2024-01-08T08:25:23.497Z,97249.13
2024-01-08T08:26:26.160Z,97247.94
2024-01-08T08:27:27.996Z,97247.03
2024-01-08T08:28:30.494Z,97252.72
2024-01-08T08:29:33.247Z,97251.53
2024-01-08T08:30:35.206Z,97252.94
2024-01-08T08:31:37.086Z,97255.97
2024-01-08T08:32:41.158Z,97253.06
2024-01-08T08:33:43.892Z,97253.75
2024-01-08T08:34:46.021Z,97253.31
2024-01-08T08:35:47.889Z,97256.22
2024-01-08T08:36:49.703Z,97249.69
2024-01-08T08:37:53.924Z,97253.78
2024-01-08T08:38:57.808Z,97255.28
2024-01-08T08:39:59.658Z,97257.03
2024-01-08T08:41:01.772Z,97254.25
2024-01-08T08:42:07.024Z,97253.41
2024-01-08T08:43:08.894Z,97254.72
2024-01-08T08:44:10.762Z,97249.34
2024-01-08T08:45:12.555Z,97253.28
2024-01-08T08:46:14.314Z,97259.34
2024-01-08T08:47:16.147Z,97254.25
2024-01-08T08:48:18.008Z,97257.50
2024-01-08T08:49:19.913Z,97254.94
2024-01-08T08:50:22.004Z,97250.53
2024-01-08T08:51:23.794Z,97259.34
2024-01-08T08:52:25.763Z,97262.03
2024-01-08T08:53:27.596Z,97267.72
2024-01-08T08:54:29.388Z,97262.16
2024-01-08T08:55:31.860Z,97264.47
2024-01-08T08:56:36.629Z,97269.34
2024-01-08T08:57:38.800Z,97273.06
2024-01-08T08:58:40.821Z,97269.00
2024-01-08T08:59:44.865Z,97275.75
2024-01-08T09:00:47.559Z,97269.59
2024-01-08T09:01:51.061Z,97269.81
2024-01-08T09:02:54.104Z,97271.22
2024-01-08T09:03:56.128Z,97267.16
2024-01-08T09:04:59.567Z,97265.41
2024-01-08T09:06:01.419Z,97265.16
2024-01-08T09:07:04.024Z,97275.63
2024-01-08T09:08:06.395Z,97272.38
2024-01-08T09:09:10.390Z,97272.28
2024-01-08T09:10:12.189Z,97272.38
2024-01-08T09:11:14.252Z,97274.47
2024-01-08T09:12:16.303Z,97271.78
2024-01-08T09:13:18.069Z,97274.47
2024-01-08T09:14:19.833Z,97271.78
2024-01-08T09:15:21.649Z,97272.59
2024-01-08T09:16:24.571Z,97274.00
2024-01-08T09:17:26.517Z,97270.28
2024-01-08T09:18:28.763Z,97266.53
2024-01-08T09:19:30.602Z,97269.91
2024-01-08T09:20:32.403Z,97276.88
2024-01-08T09:21:34.107Z,97270.06
2024-01-08T09:22:35.989Z,97281.09
2024-01-08T09:23:38.784Z,97276.56
2024-01-08T09:24:40.518Z,97280.72
2024-01-08T09:25:42.353Z,97279.56
2024-01-08T09:26:44.430Z,97275.16
2024-01-08T09:27:46.287Z,97284.47
2024-01-08T09:28:48.131Z,97273.53
2024-01-08T09:29:50.171Z,97277.50
2024-01-08T09:30:53.602Z,97282.13
2024-01-08T09:31:55.456Z,97283.88
2024-01-08T09:32:57.335Z,97288.28
2024-01-08T09:33:59.294Z,97279.81
2024-01-08T09:35:01.462Z,97283.50
2024-01-08T09:36:03.315Z,97279.09
2024-01-08T09:37:05.373Z,97276.31
2024-01-08T09:38:07.144Z,97283.66
2024-01-08T09:39:09.851Z,97285.16
2024-01-08T09:40:11.881Z,97281.44
2024-01-08T09:41:22.947Z,97279.34
2024-01-08T09:42:29.286Z,97284.22
2024-01-08T09:43:33.303Z,97286.78
2024-01-08T09:44:35.734Z,97281.22
2024-01-08T09:45:45.180Z,97291.19
2024-01-08T09:46:48.736Z,97283.53
2024-01-08T09:47:51.288Z,97286.78
2024-01-08T09:48:54.226Z,97280.50
2024-01-08T09:49:56.732Z,97287.72
2024-01-08T09:51:02.515Z,97290.97
2024-01-08T09:52:05.182Z,97289.00
2024-01-08T09:53:07.341Z,97282.28
2024-01-08T09:54:09.741Z,97293.78
2024-01-08T09:55:11.969Z,97282.94
2024-01-08T09:56:15.231Z,97285.50
2024-01-08T09:57:16.985Z,97293.78
2024-01-08T09:58:19.092Z,97287.84
2024-01-08T09:59:20.931Z,97292.13
2024-01-08T10:00:22.986Z,97293.78
2024-01-08T10:01:25.111Z,97297.50
2024-01-08T10:02:27.145Z,97292.59
2024-01-08T10:03:29.087Z,97284.47
2024-01-08T10:04:31.870Z,97287.03
2024-01-08T10:05:35.932Z,97287.47
2024-01-08T10:06:39.647Z,97280.50
2024-01-08T10:07:41.411Z,97285.63
2024-01-08T10:08:43.326Z,97290.88
2024-01-08T10:09:45.231Z,97295.75
2024-01-08T10:10:47.216Z,97287.00
2024-01-08T10:11:49.159Z,97283.53
2024-01-08T10:12:52.877Z,97288.41
2024-01-08T10:13:54.646Z,97288.19
2024-01-08T10:14:56.979Z,97285.53
2024-01-08T10:15:59.758Z,97291.66
2024-01-08T10:17:03.159Z,97287.25
2024-01-08T10:18:10.185Z,97279.34
2024-01-08T10:19:14.837Z,97289.00
2024-01-08T10:20:18.638Z,97282.38
2024-01-08T10:21:21.147Z,97284.47
2024-01-08T10:22:25.726Z,97291.09
2024-01-08T10:23:27.781Z,97291.44
2024-01-08T10:24:29.684Z,97288.78
2024-01-08T10:25:31.736Z,97282.59
2024-01-08T10:26:33.562Z,97280.03
2024-01-08T10:27:35.432Z,97289.59
2024-01-08T10:28:37.860Z,97273.97
2024-01-08T10:29:40.702Z,97281.53
2024-01-08T10:30:42.927Z,97286.44
2024-01-08T10:31:45.789Z,97285.59
2024-01-08T10:32:48.358Z,97276.31
2024-01-08T10:33:50.274Z,97285.84
2024-01-08T10:34:52.825Z,97285.06
2024-01-08T10:35:54.809Z,97282.34
2024-01-08T10:36:57.113Z,97284.00
2024-01-08T10:38:01.777Z,97287.47
2024-01-08T10:39:06.183Z,97287.72
2024-01-08T10:40:10.022Z,97281.66
2024-01-08T10:41:12.847Z,97281.31
2024-01-08T10:42:15.305Z,97283.75
2024-01-08T10:43:17.273Z,97283.06
2024-01-08T10:44:19.149Z,97287.34
2024-01-08T10:45:20.919Z,97285.84
2024-01-08T10:46:26.068Z,97287.03
2024-01-08T10:47:30.331Z,97278.66
2024-01-08T10:48:51.813Z,97278.88
2024-01-08T10:49:56.111Z,97279.81
2024-01-08T10:50:58.900Z,97283.06
2024-01-08T10:52:15.690Z,97286.22
2024-01-08T10:53:38.075Z,97286.06
2024-01-08T10:54:51.953Z,97282.81
2024-01-08T10:55:54.059Z,97282.97
2024-01-08T10:56:59.071Z,97279.94
2024-01-08T10:58:10.206Z,97282.59
2024-01-08T10:59:12.539Z,97282.47
2024-01-08T11:00:14.929Z,97276.19
2024-01-08T11:01:17.142Z,97281.22
2024-01-08T11:02:19.192Z,97284.47
2024-01-08T11:03:22.432Z,97277.50
2024-01-08T11:04:24.201Z,97281.22
2024-01-08T11:05:30.264Z,97282.13
2024-01-08T11:06:34.588Z,97284.13
2024-01-08T11:07:38.118Z,97281.44
2024-01-08T11:08:41.252Z,97282.97
2024-01-08T11:09:43.162Z,97291.81
2024-01-08T11:10:44.953Z,97282.47
2024-01-08T11:11:47.149Z,97285.75
2024-01-08T11:12:58.298Z,97293.53
2024-01-08T11:14:00.402Z,97290.84
2024-01-08T11:15:05.494Z,97289.59
2024-01-08T11:16:08.482Z,97297.97
2024-01-08T11:17:13.444Z,97294.13
2024-01-08T11:18:30.928Z,97289.34
2024-01-08T11:19:40.486Z,97294.22
2024-01-08T11:20:43.291Z,97292.38
2024-01-08T11:21:46.170Z,97290.97
2024-01-08T11:22:47.944Z,97294.34
2024-01-08T11:23:49.854Z,97287.25
2024-01-08T11:24:54.356Z,97299.09
2024-01-08T11:25:57.558Z,97292.13
2024-01-08T11:26:59.284Z,97295.38
2024-01-08T11:28:01.007Z,97294.34
2024-01-08T11:29:06.855Z,97291.66
2024-01-08T11:30:08.930Z,97299.81
2024-01-08T11:31:26.046Z,97294.34
2024-01-08T11:32:49.724Z,97298.56
2024-01-08T11:34:15.190Z,97290.75
2024-01-08T11:35:20.891Z,97293.28
2024-01-08T11:36:30.313Z,97294.94
2024-01-08T11:37:36.744Z,97301.22
2024-01-08T11:38:41.402Z,97297.72
2024-01-08T11:39:43.906Z,97304.69
2024-01-08T11:40:46.628Z,97304.00
2024-01-08T11:41:49.205Z,97300.84
2024-01-08T11:42:51.911Z,97303.41
2024-01-08T11:43:54.400Z,97305.84
2024-01-08T11:44:58.363Z,97305.41
2024-01-08T11:46:00.847Z,97313.19
2024-01-08T11:47:02.757Z,97306.56
2024-01-08T11:48:04.864Z,97311.19
2024-01-08T11:49:07.735Z,97313.75
2024-01-08T11:50:10.068Z,97311.88
2024-01-08T11:51:12.162Z,97313.28
2024-01-08T11:52:14.477Z,97313.78
2024-01-08T11:53:16.792Z,97313.06
2024-01-08T11:54:19.884Z,97311.44
2024-01-08T11:55:21.813Z,97309.91
2024-01-08T11:56:23.755Z,97314.09
2024-01-08T11:57:25.775Z,97311.31
2024-01-08T11:58:27.623Z,97323.06
2024-01-08T11:59:32.592Z,97317.25
2024-01-08T12:00:35.515Z,97314.69
2024-01-08T12:01:37.406Z,97307.59
2024-01-08T12:02:41.059Z,97317.47
2024-01-08T12:03:42.845Z,97314.94
2024-01-08T12:04:55.061Z,97311.44
2024-01-08T12:06:09.056Z,97313.91
2024-01-08T12:07:12.772Z,97314.94
2024-01-08T12:08:19.061Z,97314.94
2024-01-08T12:09:20.875Z,97312.16
2024-01-08T12:10:22.975Z,97307.94
2024-01-08T12:11:26.942Z,97311.19
2024-01-08T12:12:30.657Z,97312.84
2024-01-08T12:13:32.378Z,97311.69
2024-01-08T12:14:35.977Z,97314.13
2024-01-08T12:15:39.936Z,97313.44